^^
Station Historical Data
Daily Summary for August 19, 2017 Units:  English    Metric   Both
« Previous Day
Next Day »
Daily Weekly Monthly Yearly Custom
  High: Low: Average:
Temperature: 86.2 °F 70.4 °F 77.8 °F
Dew Point: 71.3 °F 65.1 °F 68.5 °F
Humidity: 98% 50% 76%
Wind Speed: 3.0mph 0.0mph 0.9mph
Wind Gust: 12.0mph - -
Wind- - SW
Pressure: 29.89 in 29.77 in -
Precipitation: 0.00 in    
Historical Graphs
 
 
Tabular Data for August 19, 2017
Time Temperature Dew Point Pressure Wind Wind Speed Wind Gust Humidity Rainfall Rate (Hourly) Conditions
00:00 72.5 °F 71.0 °F 29.81 in SW 2.0 mph 5.0 mph 95% 0.00 in RA
00:15 72.5 °F 71.3 °F 29.80 in SW 1.0 mph 3.0 mph 96% 0.00 in SCT
00:30 72.4 °F 71.2 °F 29.80 in Calm   5.0 mph 96% 0.00 in SCT
00:45 72.5 °F 71.3 °F 29.80 in Calm   3.0 mph 96% 0.00 in SCT
01:00 72.4 °F 71.2 °F 29.79 in SSW 1.0 mph 6.0 mph 96% 0.00 in SCT
01:15 72.4 °F 71.2 °F 29.79 in Calm   4.0 mph 96% 0.00 in SCT
01:30 72.3 °F 71.1 °F 29.78 in Calm   3.0 mph 96% 0.00 in SCT
01:45 72.2 °F 71.0 °F 29.78 in SSW 1.0 mph 4.0 mph 96% 0.00 in SCT
02:00 72.2 °F 71.0 °F 29.78 in SW 2.0 mph 5.0 mph 96% 0.00 in SCT
02:15 72.2 °F 71.0 °F 29.78 in Calm   4.0 mph 96% 0.00 in BKN
02:30 72.0 °F 70.8 °F 29.77 in SW 1.0 mph 4.0 mph 96% 0.00 in BKN
02:45 71.9 °F 71.0 °F 29.77 in Calm   4.0 mph 97% 0.00 in BKN
03:00 71.8 °F 70.9 °F 29.77 in SW 2.0 mph 4.0 mph 97% 0.00 in BKN
03:15 71.7 °F 70.8 °F 29.78 in Calm   4.0 mph 97% 0.00 in FEW
03:30 71.7 °F 70.8 °F 29.78 in SSW 1.0 mph 3.0 mph 97% 0.00 in FEW
03:45 71.7 °F 70.8 °F 29.78 in Calm   3.0 mph 97% 0.00 in FEW
04:00 71.7 °F 70.8 °F 29.78 in SSW 1.0 mph 2.0 mph 97% 0.00 in FEW
04:15 71.6 °F 70.7 °F 29.78 in Calm   4.0 mph 97% 0.00 in FEW
04:30 71.5 °F 70.6 °F 29.78 in Calm   4.0 mph 97% 0.00 in FEW
04:45 71.4 °F 70.5 °F 29.79 in SSW 1.0 mph 3.0 mph 97% 0.00 in FEW
05:00 71.4 °F 70.5 °F 29.80 in SSW 1.0 mph 2.0 mph 97% 0.00 in FEW
05:15 71.5 °F 70.6 °F 29.80 in SSW 2.0 mph 3.0 mph 97% 0.00 in FEW
05:30 71.4 °F 70.5 °F 29.80 in Calm   3.0 mph 97% 0.00 in FEW
05:45 71.1 °F 70.2 °F 29.81 in Calm   2.0 mph 97% 0.00 in FEW
06:15 70.8 °F 69.9 °F 29.82 in Calm     97% 0.00 in FEW
06:30 70.4 °F 69.5 °F 29.82 in Calm     97% 0.00 in FEW
06:45 70.6 °F 70.0 °F 29.82 in Calm     98% 0.00 in FEW
07:00 70.8 °F 70.2 °F 29.83 in Calm   2.0 mph 98% 0.00 in FEW
07:15 70.8 °F 70.2 °F 29.83 in Calm   1.0 mph 98% 0.00 in FEW
07:30 71.0 °F 70.4 °F 29.83 in Calm   1.0 mph 98% 0.00 in FEW
07:45 71.2 °F 70.6 °F 29.83 in Calm   1.0 mph 98% 0.00 in FEW
08:00 71.3 °F 70.7 °F 29.83 in Calm   1.0 mph 98% 0.00 in FEW
08:15 71.2 °F 70.3 °F 29.83 in Calm   1.0 mph 97% 0.00 in FEW
08:30 72.2 °F 71.3 °F 29.84 in Calm   4.0 mph 97% 0.00 in FEW
08:45 73.8 °F 70.4 °F 29.85 in North 1.0 mph 4.0 mph 89% 0.00 in FEW
09:00 75.4 °F 70.2 °F 29.85 in Calm   4.0 mph 84% 0.00 in FEW
09:15 76.4 °F 69.4 °F 29.85 in North 1.0 mph 4.0 mph 79% 0.00 in CLR
09:30 77.7 °F 70.2 °F 29.85 in Calm   4.0 mph 78% 0.00 in CLR
09:45 78.2 °F 69.6 °F 29.85 in Calm   3.0 mph 75% 0.00 in CLR
10:00 78.2 °F 69.2 °F 29.86 in Calm   6.0 mph 74% 0.00 in CLR
10:15 78.3 °F 69.0 °F 29.86 in West 1.0 mph 4.0 mph 73% 0.00 in FEW
10:30 79.2 °F 69.4 °F 29.86 in NNW 1.0 mph 4.0 mph 72% 0.00 in FEW
10:45 79.4 °F 69.2 °F 29.87 in Calm   4.0 mph 71% 0.00 in FEW
11:00 79.7 °F 68.6 °F 29.86 in West 2.0 mph 6.0 mph 69% 0.00 in FEW
11:15 80.6 °F 69.5 °F 29.87 in NW 1.0 mph 6.0 mph 69% 0.00 in FEW
11:30 81.7 °F 66.9 °F 29.86 in SE 1.0 mph 6.0 mph 61% 0.00 in FEW
11:45 81.9 °F 68.1 °F 29.87 in NW 2.0 mph 5.0 mph 63% 0.00 in FEW
12:00 81.8 °F 66.6 °F 29.86 in Calm   6.0 mph 60% 0.00 in FEW
12:15 82.3 °F 67.0 °F 29.87 in WSW 2.0 mph 6.0 mph 60% 0.00 in SCT
12:30 83.5 °F 67.7 °F 29.86 in SSW 2.0 mph 5.0 mph 59% 0.00 in SCT
12:45 82.7 °F 66.9 °F 29.86 in SSW 2.0 mph 6.0 mph 59% 0.00 in SCT
13:00 83.5 °F 67.7 °F 29.86 in WSW 1.0 mph 7.0 mph 59% 0.00 in SCT
13:15 83.6 °F 66.7 °F 29.86 in West 2.0 mph 4.0 mph 57% 0.00 in BKN
13:30 84.4 °F 67.0 °F 29.86 in SW 2.0 mph 7.0 mph 56% 0.00 in BKN
13:45 84.7 °F 67.3 °F 29.85 in SW 1.0 mph 6.0 mph 56% 0.00 in BKN
14:00 84.5 °F 66.1 °F 29.85 in West 1.0 mph 6.0 mph 54% 0.00 in BKN
14:15 84.6 °F 66.1 °F 29.85 in West 3.0 mph 8.0 mph 54% 0.00 in BKN
14:30 85.2 °F 66.2 °F 29.84 in WSW 2.0 mph 8.0 mph 53% 0.00 in BKN
14:45 85.9 °F 65.1 °F 29.84 in WSW 2.0 mph 12.0 mph 50% 0.00 in BKN
15:00 86.1 °F 65.9 °F 29.84 in SW 3.0 mph 9.0 mph 51% 0.00 in BKN
15:15 85.7 °F 66.6 °F 29.83 in West 3.0 mph 8.0 mph 53% 0.00 in SCT
15:30 85.5 °F 65.9 °F 29.83 in WSW 3.0 mph 12.0 mph 52% 0.00 in SCT
15:45 86.2 °F 65.9 °F 29.83 in WSW 2.0 mph 9.0 mph 51% 0.00 in SCT
16:00 86.1 °F 66.4 °F 29.83 in SW 2.0 mph 8.0 mph 52% 0.00 in SCT
16:15 85.9 °F 66.8 °F 29.83 in WSW 2.0 mph 10.0 mph 53% 0.00 in SCT
16:30 85.7 °F 67.1 °F 29.83 in WSW 2.0 mph 12.0 mph 54% 0.00 in SCT
16:45 86.1 °F 66.4 °F 29.83 in SW 2.0 mph 9.0 mph 52% 0.00 in SCT
17:00 84.5 °F 65.5 °F 29.83 in SW 2.0 mph 7.0 mph 53% 0.00 in SCT
17:15 85.1 °F 67.1 °F 29.82 in WSW 1.0 mph 6.0 mph 55% 0.00 in SCT
17:30 85.7 °F 66.6 °F 29.82 in SSW 2.0 mph 9.0 mph 53% 0.00 in SCT
17:45 85.1 °F 67.2 °F 29.82 in SW 2.0 mph 9.0 mph 55% 0.00 in SCT
18:00 85.9 °F 67.3 °F 29.82 in SW 2.0 mph 5.0 mph 54% 0.00 in SCT
18:15 84.7 °F 67.3 °F 29.82 in SW 1.0 mph 8.0 mph 56% 0.00 in SCT
18:30 84.4 °F 66.5 °F 29.83 in SW 3.0 mph 6.0 mph 55% 0.00 in SCT
18:45 84.2 °F 67.3 °F 29.83 in SSW 1.0 mph 4.0 mph 57% 0.00 in SCT
19:00 83.3 °F 67.0 °F 29.83 in SW 1.0 mph 9.0 mph 58% 0.00 in SCT
19:15 82.0 °F 66.7 °F 29.83 in SW 1.0 mph 6.0 mph 60% 0.00 in FEW
19:30 81.1 °F 66.8 °F 29.83 in Calm   5.0 mph 62% 0.00 in FEW
19:45 80.2 °F 67.0 °F 29.84 in Calm   4.0 mph 64% 0.00 in FEW
20:00 79.4 °F 67.0 °F 29.84 in Calm   2.0 mph 66% 0.00 in FEW
20:15 78.5 °F 66.6 °F 29.85 in Calm   1.0 mph 67% 0.00 in FEW
20:30 77.8 °F 66.9 °F 29.85 in Calm   1.0 mph 69% 0.00 in FEW
20:45 77.1 °F 66.6 °F 29.85 in Calm     70% 0.00 in FEW
21:00 76.7 °F 66.6 °F 29.85 in Calm   1.0 mph 71% 0.00 in FEW
21:15 76.1 °F 66.8 °F 29.86 in Calm   1.0 mph 73% 0.00 in CLR
21:30 76.0 °F 66.7 °F 29.86 in Calm   1.0 mph 73% 0.00 in CLR
21:45 76.2 °F 66.5 °F 29.87 in SSW 1.0 mph 2.0 mph 72% 0.00 in CLR
22:00 76.4 °F 67.1 °F 29.88 in Calm   3.0 mph 73% 0.00 in CLR
22:15 76.3 °F 67.4 °F 29.89 in Calm   4.0 mph 74% 0.00 in CLR
22:30 76.1 °F 67.6 °F 29.89 in SSW 1.0 mph 4.0 mph 75% 0.00 in CLR
22:45 76.1 °F 67.3 °F 29.89 in SSW 3.0 mph 6.0 mph 74% 0.00 in CLR
23:00 76.1 °F 67.2 °F 29.88 in South 1.0 mph 5.0 mph 74% 0.00 in CLR
23:45 75.1 °F 67.4 °F 29.88 in Calm   1.0 mph 77% 0.00 in CLR
TarryTown NY Weather
Compliments of Weather Underground - 1.5 mb